createdAt,value
2023-04-17T10:40:21.469Z,96.76
2023-04-17T10:41:23.700Z,96.45
2023-04-17T10:42:25.861Z,95.37
2023-04-17T10:43:27.920Z,93.22
2023-04-17T10:44:38.940Z,90.98
2023-04-17T10:45:59.571Z,89.57
2023-04-17T10:48:35.683Z,86.69
2023-04-17T10:50:00.104Z,85.88
2023-04-17T10:51:22.341Z,87.07
2023-04-17T10:52:32.763Z,85.68
2023-04-17T10:53:43.065Z,85.50
2023-04-17T10:55:10.571Z,85.68
2023-04-17T10:56:18.344Z,84.88
2023-04-17T10:57:52.429Z,84.48
2023-04-17T10:59:02.269Z,84.98
2023-04-17T11:00:16.528Z,85.33
2023-04-17T11:01:17.989Z,84.44
2023-04-17T11:02:33.898Z,84.64
2023-04-17T11:03:39.579Z,84.29
2023-04-17T11:04:41.023Z,85.22
2023-04-17T11:05:47.113Z,83.67
2023-04-17T11:06:49.316Z,85.60
2023-04-17T11:07:51.484Z,85.88
2023-04-17T11:08:56.825Z,85.86
2023-04-17T11:09:59.396Z,84.47
2023-04-17T11:11:00.876Z,84.36
2023-04-17T11:12:02.581Z,84.09
2023-04-17T11:13:04.143Z,84.18
2023-04-17T11:14:14.654Z,83.53
2023-04-17T11:15:16.661Z,83.87
2023-04-17T11:16:20.873Z,84.64
2023-04-17T11:17:22.763Z,83.33
2023-04-17T11:18:24.173Z,84.17
2023-04-17T11:19:25.802Z,84.46
2023-04-17T11:20:32.452Z,84.39
2023-04-17T11:21:33.821Z,83.88
2023-04-17T11:22:35.524Z,83.54
2023-04-17T11:23:37.533Z,83.70
2023-04-17T11:24:38.879Z,85.12
2023-04-17T11:25:40.288Z,83.99
2023-04-17T11:26:51.126Z,84.43
2023-04-17T11:28:00.423Z,85.21
2023-04-17T11:29:01.852Z,84.79
2023-04-17T11:30:03.445Z,86.58
2023-04-17T11:31:05.054Z,86.05
2023-04-17T11:32:11.074Z,85.52
2023-04-17T12:38:45.354Z,94.18
2023-04-17T12:41:02.533Z,93.12
2023-04-17T12:42:04.038Z,93.86
2023-04-17T12:43:05.658Z,94.03
2023-04-17T12:44:07.130Z,93.41
2023-04-17T12:45:09.210Z,92.72
2023-04-17T12:46:11.197Z,91.71
2023-04-17T12:47:12.634Z,92.09
2023-04-17T12:48:14.951Z,91.31
2023-04-17T12:49:16.563Z,90.92
2023-04-17T12:50:17.944Z,90.51
2023-04-17T12:51:19.291Z,91.70
2023-04-17T12:52:20.776Z,90.50
2023-04-17T12:54:51.038Z,89.75
2023-04-17T13:07:33.611Z,88.88
2023-04-17T13:13:17.244Z,88.91
2023-04-17T13:15:40.450Z,90.00
2023-04-17T13:18:10.557Z,88.09
2023-04-17T14:05:42.990Z,85.48
2023-04-17T14:07:58.465Z,84.09
2023-04-17T14:10:27.411Z,83.20
2023-04-17T14:12:53.102Z,83.09
2023-04-17T15:04:05.340Z,81.30
2023-04-17T15:06:21.573Z,81.01
2023-04-17T15:07:23.116Z,81.42
2023-04-17T15:09:40.210Z,80.70
2023-04-17T15:10:50.758Z,82.01
2023-04-17T15:13:13.468Z,81.17
2023-04-17T15:14:14.914Z,81.95
2023-04-17T15:16:47.874Z,81.71
2023-04-17T15:17:49.455Z,82.18
2023-04-17T15:18:51.154Z,81.66
2023-04-17T15:21:11.098Z,80.92
2023-04-17T15:23:32.229Z,81.61
2023-04-17T15:25:57.769Z,81.59
2023-04-17T15:28:25.540Z,82.14
